Tiempo atmosférico en la estación meteorológica de Telde, Centro Forestal Doramas, Las Palmas (344 m.)



Fecha
DESCASC
Temp. máxima en grados centígrados (hora)
DESCASC
Temp. mínima en grados centígrados (hora)
DESCASC
Temp. media en grados centígrados
DESCASC
Racha de viento máxima en m/sg (hora)
DESCASC
Velocidad máxima media en intervalos de 10 minutos(hora)
DESCASC
Precipitaciones diarias en mm
DESCASC
Precipitaciones de 00:00 a 06:00 en mm
DESCASC
Precipitaciones de 06:00 a 12:00 en mm
DESCASC
Precipitaciones de 12:00 a 18:00 en mm
DESCASC
Precipitaciones de 18:00 a 24:00 en mm
DESCASC
05-12-2019 17 (00:30) 13 (21:50) 15 14.17 (13:00) 7.22 (10:40) 25 10 1.6 3.4 10
04-12-2019 19.7 (15:00) 14.2 (04:10) 17 10 (17:10) 5.83 (17:00) 0 0 0 0 0
03-12-2019 18.3 (14:00) 14.3 (00:00) 16.3 11.11 (01:50) 6.11 (15:40) 2.4 2.4 0 0 0
02-12-2019 20 (13:50) 14.6 (00:00) 17.3 12.22 (15:30) 6.94 (16:10) 5 0 0 0 5
01-12-2019 21 (14:20) 13.4 (00:00) 17.2 8.61 (15:50) 5 (15:30) 0 0 0 0 0
30-11-2019 25 (12:40) 15.5 (00:00) 20.3 5.83 (01:30) 4.17 (01:30) 0 0 0 0 0
29-11-2019 25.1 (12:30) 15.1 (00:00) 20.1 6.67 (14:00) 4.17 (14:00) 0 0 0 0 0
28-11-2019 21.1 (11:40) 13.3 (00:00) 17.2 6.11 (07:20) 4.17 (06:30) 0 0 0 0 0
27-11-2019 20.7 (12:10) 14.9 (00:00) 17.8 7.22 (13:30) 4.44 (05:10) 0 0 0 0 0
26-11-2019 21.4 (12:50) 15.2 (00:00) 18.3 8.33 (16:10) 5.56 (15:30) 0 0 0 0 0
25-11-2019 20.2 (13:10) 13.6 (00:00) 16.9 8.33 (14:30) 5 (08:40) 0 0 0 0 0
24-11-2019 21.6 (14:30) 16.6 (00:00) 19.1 9.72 (11:50) 6.67 (16:00) 0.2 0 0.2 0 0
23-11-2019 22.1 (12:50) 15.4 (00:00) 18.8 11.11 (10:30) 6.11 (13:40) 1.2 0 0 1 0.2
22-11-2019 22.4 (14:50) 15 (00:00) 18.7 7.78 (13:30) 5.28 (11:30) 0 0 0 0 0
21-11-2019 19.1 (09:40) 14.3 (00:00) 16.7 4.17 (12:10) 3.06 (07:20) 0 0 0 0 0
20-11-2019 21.6 (13:40) 13.2 (00:00) 17.4 5.83 (13:50) 3.33 (13:50) 0 0 0 0 0
19-11-2019 19.7 (14:40) 14.3 (00:00) 17 10 (15:30) 6.67 (15:40) 0.4 0 0 0.4 0
18-11-2019 19.5 (14:20) 13.7 (00:00) 16.6 8.61 (12:50) 4.72 (23:30) 0 0 0 0 0
17-11-2019 17.7 (12:30) 13.6 (00:00) 15.7 9.44 (11:10) 5.83 (11:10) 2.2 1 1 0.2 0
16-11-2019 18.6 (13:20) 14.1 (00:00) 16.4 14.44 (02:50) 6.94 (12:20) 1.2 0.6 0.2 0 0.4
15-11-2019 16.9 (09:50) 15 (00:00) 15.9 11.39 (07:40) 6.11 (14:40) 9 0.4 6.2 2.2 0.2
14-11-2019 19.8 (11:20) 15.5 (00:00) 17.6 11.67 (23:50) 6.94 (23:50) 0.6 0 0 0 0.6
13-11-2019 20 (14:30) 17 (00:00) 18.5 12.5 (10:40) 7.22 (01:10) 0 0 0 0 0
12-11-2019 20.1 (14:40) 17 (00:00) 18.6 12.78 (00:50) 7.78 (15:30) 2 0 1.6 0.4 0
11-11-2019 19.3 (11:00) 16.6 (07:20) 17.9 13.89 (16:20) 8.61 (19:30) 0.2 0.2 0 0 0
10-11-2019 20.5 (13:20) 16.2 (00:00) 18.4 11.94 (11:40) 6.11 (11:10) 0 0 0 0 0
09-11-2019 19.4 (14:20) 15.9 (00:00) 17.6 15 (14:10) 7.22 (14:30) 2 0 0 0.2 1.8
08-11-2019 19.9 (12:40) 16.9 (00:00) 18.4 11.94 (13:40) 7.22 (13:50) 3 1.2 1.6 0.2 0
07-11-2019 20.7 (15:10) 15.9 (00:00) 18.3 10.56 (14:50) 5.56 (19:00) 1.6 0.2 1.2 0.2 0
06-11-2019 19.3 (12:30) 15.9 (00:00) 17.6 12.22 (14:10) 7.5 (14:10) 2.6 0.8 0.4 0.2 1.2

Gráficas

Temp. máximas Temp. mínimas Temp. medias Precipitaciones Rachas de viento máximas Velocidades máximas media en intervalos de 10 minutos

Datos horarios

Fecha y hora oficial Temperatura (ºC) Velocidad del viento (km/h) Dirección del viento Racha (km/h) Dirección de racha Precipitación (mm) Presión (hPa) Tendencia (hPa) Humedad (%)
2019-12-05 23:00:00 14.5 16 Noroeste 47 Noroeste 0.2 -- -- 81
2019-12-05 22:00:00 13.2 16 Oeste 32 Oeste 3.6 -- -- 86
2019-12-05 21:00:00 14.6 20 Noroeste 40 Oeste 0 -- -- 78
2019-12-05 20:00:00 14.6 22 Noroeste 43 Noroeste 0 -- -- 79
2019-12-05 19:00:00 14.3 24 Noroeste 44 Norte 1.6 -- -- 83
2019-12-05 18:00:00 14.4 24 Noroeste 46 Noroeste 0.8 -- -- 78
2019-12-05 17:00:00 15.1 19 Noroeste 44 Noroeste 0.4 -- -- 76
2019-12-05 16:00:00 16.2 13 Noroeste 41 Noroeste 0 -- -- 72
2019-12-05 15:00:00 16.1 21 Noroeste 46 Oeste 0 -- -- 73
2019-12-05 14:00:00 15.3 21 Noroeste 45 Noroeste 0.6 -- -- 80
2019-12-05 13:00:00 14.8 25 Noroeste 51 Noroeste 1.6 -- -- 81
2019-12-05 12:00:00 15.3 22 Noroeste 39 Noroeste 0.6 -- -- 79
2019-12-05 11:00:00 16.2 18 Noroeste 49 Noroeste 0.4 -- -- 74
2019-12-05 10:00:00 15.8 16 Noroeste 47 Noroeste 0 -- -- 77
2019-12-05 09:00:00 15.4 18 Noroeste 39 Oeste 0 -- -- 71
2019-12-05 08:00:00 14.4 14 Noroeste 31 Oeste 0 -- -- 74
2019-12-05 07:00:00 14.1 13 Noroeste 32 Noroeste 0.6 -- -- 77
2019-12-05 06:00:00 14.1 17 Noroeste 36 Noroeste 0.8 -- -- 82
2019-12-05 05:00:00 13.9 15 Oeste 35 Oeste 0.8 -- -- 82
2019-12-05 04:00:00 14 16 Noroeste 40 Noroeste 3 -- -- 89
2019-12-05 03:00:00 14.7 12 Noroeste 28 Noroeste 4 -- -- 93
2019-12-05 02:00:00 14.6 5 Sudoeste 20 Noroeste 1.4 -- -- 91
2019-12-05 01:00:00 15.9 12 Noroeste 26 Noroeste 0 -- -- 80
2019-12-05 00:00:00 16 5 Sudoeste 16 Oeste 0 -- -- 72
2019-12-04 23:00:00 15.8 5 Sudeste 11 Norte 0 -- -- 71
2019-12-04 22:00:00 15.9 6 Sudeste 28 Noroeste 0 -- -- 71
2019-12-04 21:00:00 16.6 14 Oeste 29 Oeste 0 -- -- 72
2019-12-04 20:00:00 16.4 13 Noroeste 25 Noroeste 0 -- -- 75
2019-12-04 19:00:00 16.5 8 Oeste 23 Noroeste 0 -- -- 73
2019-12-04 18:00:00 17 9 Noroeste 36 Noroeste 0 -- -- 72
2019-12-04 17:00:00 17.6 21 Noroeste 35 Noroeste 0 -- -- 70
2019-12-04 16:00:00 19.4 14 Norte 29 Oeste 0 -- -- 57
2019-12-04 15:00:00 19.7 14 Noroeste 31 Oeste 0 -- -- 52
2019-12-04 14:00:00 18.9 15 Oeste 32 Oeste 0 -- -- 58
2019-12-04 13:00:00 16.9 16 Noroeste 29 Noroeste 0 -- -- 69
2019-12-04 12:00:00 17.9 12 Noroeste 28 Noroeste 0 -- -- 59
2019-12-04 11:00:00 17.9 15 Noroeste 30 Oeste 0 -- -- 57
2019-12-04 10:00:00 18 14 Noroeste 30 Oeste 0 -- -- 53
2019-12-04 09:00:00 16.2 9 Oeste 19 Oeste 0 -- -- 63
2019-12-04 08:00:00 15.3 14 Oeste 24 Oeste 0 -- -- 71
2019-12-04 07:00:00 14.4 18 Oeste 28 Oeste 0 -- -- 76
2019-12-04 06:00:00 14.7 9 Oeste 22 Noroeste 0 -- -- 75
2019-12-04 05:00:00 15.4 9 Noroeste 17 Noroeste 0 -- -- 64
2019-12-04 04:00:00 14.3 12 Oeste 16 Oeste 0 -- -- 71
2019-12-04 03:00:00 14.9 10 Oeste 15 Oeste 0 -- -- 75
2019-12-04 02:00:00 15.3 9 Oeste 14 Oeste 0 -- -- 71
2019-12-04 01:00:00 15.1 11 Oeste 19 Oeste 0 -- -- 73
2019-12-04 00:00:00 15.6 8 Noroeste 25 Noroeste 0 -- -- 72
2019-12-03 23:00:00 15.6 12 Oeste 23 Oeste 0 -- -- 71
2019-12-03 22:00:00 15.7 13 Oeste 28 Oeste 0 -- -- 69
2019-12-03 21:00:00 15.2 14 Oeste 22 Oeste 0 -- -- 68
2019-12-03 20:00:00 15.2 11 Oeste 24 Oeste 0 -- -- 70
2019-12-03 19:00:00 15.5 10 Oeste 21 Oeste 0 -- -- 66
2019-12-03 18:00:00 15.9 12 Oeste 23 Oeste 0 -- -- 64
2019-12-03 17:00:00 16.7 18 Oeste 29 Noroeste 0 -- -- 66
2019-12-03 16:00:00 17.5 20 Oeste 34 Oeste 0 -- -- 61
2019-12-03 15:00:00 16.7 15 Noroeste 32 Noroeste 0 -- -- 72
2019-12-03 14:00:00 18.3 17 Norte 34 Noroeste 0 -- -- 63
2019-12-03 13:00:00 16.7 17 Noroeste 36 Noroeste 0 -- -- 74
2019-12-03 12:00:00 17.7 19 Norte 31 Norte 0 -- -- 62
2019-12-03 11:00:00 17.5 17 Noroeste 40 Noroeste 0 -- -- 62
2019-12-03 10:00:00 16.3 13 Noroeste 33 Noroeste 0 -- -- 66
2019-12-03 09:00:00 15.8 15 Noroeste 28 Oeste 0 -- -- 72
2019-12-03 08:00:00 15.4 14 Noroeste 26 Noroeste 0 -- -- 78
2019-12-03 07:00:00 15 13 Noroeste 24 Oeste 0 -- -- 80
2019-12-03 06:00:00 14.5 10 Noroeste 37 Oeste 0.6 -- -- 85
2019-12-03 05:00:00 14.5 17 Oeste 33 Oeste 0.2 -- -- 82
2019-12-03 04:00:00 14.6 16 Noroeste 34 Oeste 0.8 -- -- 84
2019-12-03 03:00:00 14.7 15 Oeste 33 Noroeste 0 -- -- 80
2019-12-03 02:00:00 14.6 15 Oeste 40 Noroeste 0.6 -- -- 84
2019-12-03 01:00:00 14.6 17 Oeste 33 Noroeste 0.2 -- -- 85
2019-12-03 00:00:00 14.7 14 Oeste 30 Noroeste 0.4 -- -- 84
2019-12-02 23:00:00 14.7 17 Noroeste 31 Noroeste 1.8 -- -- 86
2019-12-02 22:00:00 14.8 9 Noroeste 30 Noroeste 0.6 -- -- 87
2019-12-02 21:00:00 14.9 15 Noroeste 27 Norte 1.4 -- -- 88
2019-12-02 20:00:00 15.2 17 Noroeste 29 Noroeste 0.8 -- -- 87
2019-12-02 19:00:00 16.4 14 Noroeste 28 Noroeste 0 -- -- 77
2019-12-02 18:00:00 17 14 Noroeste 34 Noroeste 0 -- -- 69
2019-12-02 17:00:00 19.1 17 Norte 42 Norte 0 -- -- 63
2019-12-02 16:00:00 19.3 21 Noroeste 44 Noroeste 0 -- -- 57
2019-12-02 15:00:00 19.6 24 Noroeste 40 Norte 0 -- -- 56
2019-12-02 14:00:00 20 19 Noroeste 32 Noroeste 0 -- -- 61
2019-12-02 13:00:00 18 15 Noroeste 32 Norte 0 -- -- 71
2019-12-02 12:00:00 17.6 13 Noroeste 36 Oeste 0 -- -- 72
2019-12-02 11:00:00 16.4 14 Noroeste 33 Noroeste 0 -- -- 84
2019-12-02 10:00:00 16.2 10 Noroeste 24 Noroeste 0 -- -- 86
2019-12-02 09:00:00 16.9 9 Noroeste 23 Noroeste 0 -- -- 81
2019-12-02 08:00:00 17.1 11 Noroeste 24 Noroeste 0 -- -- 68
2019-12-02 07:00:00 16.8 9 Noroeste 36 Oeste 0 -- -- 68
2019-12-02 06:00:00 16.8 12 Oeste 33 Noroeste 0 -- -- 75
2019-12-02 05:00:00 16.8 16 Noroeste 33 Noroeste 0 -- -- 79
2019-12-02 04:00:00 17.3 14 Noroeste 28 Noroeste 0 -- -- 75
2019-12-02 03:00:00 16.8 11 Oeste 28 Oeste 0 -- -- 69
2019-12-02 02:00:00 16.4 15 Oeste 32 Oeste 0 -- -- 69
2019-12-02 01:00:00 16.1 13 Oeste 25 Noroeste 0 -- -- 75
2019-12-02 00:00:00 15.9 11 Oeste 27 Oeste 0 -- -- 74
2019-12-01 23:00:00 15.4 8 Noroeste 18 Oeste 0 -- -- 75
2019-12-01 22:00:00 15.7 8 Oeste 17 Oeste 0 -- -- 69
2019-12-01 21:00:00 16.2 12 Oeste 18 Noroeste 0 -- -- 73
2019-12-01 20:00:00 17.2 8 Noroeste 20 Noroeste 0 -- -- 73
2019-12-01 19:00:00 17.2 10 Noroeste 25 Noroeste 0 -- -- 73
2019-12-01 18:00:00 17.3 12 Noroeste 23 Noroeste 0 -- -- 77
2019-12-01 17:00:00 17.9 12 Norte 29 Norte 0 -- -- 75
2019-12-01 16:00:00 18.7 13 Norte 31 Nordeste 0 -- -- 74
2019-12-01 15:00:00 19.9 14 Nordeste 26 Este 0 -- -- 71
2019-12-01 14:00:00 20.2 14 Norte 27 Norte 0 -- -- 68
2019-12-01 13:00:00 19.8 14 Norte 28 Nordeste 0 -- -- 69
2019-12-01 12:00:00 19.8 15 Norte 26 Noroeste 0 -- -- 70
2019-12-01 11:00:00 18.4 14 Noroeste 22 Norte 0 -- -- 73
2019-12-01 10:00:00 17.4 11 Noroeste 27 Oeste 0 -- -- 79
2019-12-01 09:00:00 16.5 9 Noroeste 22 Oeste 0 -- -- 82
2019-12-01 08:00:00 15.5 11 Oeste 19 Oeste 0 -- -- 81
2019-12-01 07:00:00 15.3 9 Oeste 23 Oeste 0 -- -- 83
2019-12-01 06:00:00 14.3 5 Oeste 15 Sudoeste 0 -- -- 85
2019-12-01 05:00:00 13.7 6 Sudoeste 14 Sudoeste 0 -- -- 78
2019-12-01 04:00:00 13.8 8 Oeste 15 Oeste 0 -- -- 81
2019-12-01 03:00:00 14.6 4 Sudoeste 11 Sudoeste 0 -- -- 82
2019-12-01 02:00:00 14.8 5 Sudoeste 12 Sudoeste 0 -- -- 76
2019-12-01 01:00:00 15.2 5 Sudoeste 15 Norte 0 -- -- 72
2019-12-01 00:00:00 15.7 5 Sudoeste 13 Oeste 0 -- -- 69
2019-11-30 23:00:00 15.5 6 Sudoeste 10 Sudoeste 0 -- -- 59
2019-11-30 22:00:00 15.9 7 Oeste 10 Sudoeste 0 -- -- 59
2019-11-30 21:00:00 16.2 4 Sudoeste 11 Sudoeste 0 -- -- 77
2019-11-30 20:00:00 16.9 5 Sudoeste 8 Oeste 0 -- -- 88
2019-11-30 19:00:00 18.2 0 Calma 4 Sur 0 -- -- 87
2019-11-30 18:00:00 19.5 0 Calma 9 Este 0 -- -- 83
2019-11-30 17:00:00 20.8 7 Este 14 Este 0 -- -- 78
2019-11-30 16:00:00 22.2 9 Este 16 Este 0 -- -- 67
2019-11-30 15:00:00 23.1 10 Este 17 Nordeste 0 -- -- 55
2019-11-30 14:00:00 24 10 Este 19 Este 0 -- -- 52
2019-11-30 13:00:00 25 12 Este 20 Este 0 -- -- 43
2019-11-30 12:00:00 24.9 11 Este 18 Este 0 -- -- 36
2019-11-30 11:00:00 24.2 8 Este 15 Este 0 -- -- 39
2019-11-30 10:00:00 24.5 7 Este 11 Nordeste 0 -- -- 30
2019-11-30 09:00:00 21.3 8 Oeste 16 Oeste 0 -- -- 34
2019-11-30 08:00:00 18.8 10 Oeste 15 Sudoeste 0 -- -- 35
2019-11-30 07:00:00 18.7 8 Sudoeste 15 Oeste 0 -- -- 35
2019-11-30 06:00:00 19.2 10 Oeste 18 Oeste 0 -- -- 34
2019-11-30 05:00:00 20.2 10 Oeste 17 Sudoeste 0 -- -- 32
2019-11-30 04:00:00 20.1 10 Oeste 17 Oeste 0 -- -- 33
2019-11-30 03:00:00 19.7 10 Oeste 16 Oeste 0 -- -- 33
2019-11-30 02:00:00 19.2 10 Oeste 21 Oeste 0 -- -- 35
2019-11-30 01:00:00 18.4 10 Oeste 18 Oeste 0 -- -- 37
2019-11-30 00:00:00 18.5 11 Oeste 19 Sudoeste 0 -- -- 41
2019-11-29 23:00:00 17.9 13 Oeste 19 Oeste 0 -- -- 52
2019-11-29 22:00:00 17.1 8 Sudoeste 12 Oeste 0 -- -- 56
2019-11-29 21:00:00 16.8 5 Sudoeste 8 Sudoeste 0 -- -- 54
2019-11-29 20:00:00 17.6 4 Oeste 9 Sudoeste 0 -- -- 55
2019-11-29 19:00:00 18.4 4 Sudoeste 7 Oeste 0 -- -- 66
2019-11-29 18:00:00 20.7 0 Calma 10 Este 0 -- -- 60
2019-11-29 17:00:00 22.9 7 Este 15 Este 0 -- -- 48
2019-11-29 16:00:00 23.7 10 Este 21 Nordeste 0 -- -- 43
2019-11-29 15:00:00 24.3 13 Este 23 Este 0 -- -- 42
2019-11-29 14:00:00 24.8 15 Este 24 Este 0 -- -- 40
2019-11-29 13:00:00 24.8 14 Este 22 Este 0 -- -- 41
2019-11-29 12:00:00 24.6 11 Este 19 Este 0 -- -- 42
2019-11-29 11:00:00 24 11 Este 19 Este 0 -- -- 43
2019-11-29 10:00:00 24.1 6 Sudeste 18 Sudeste 0 -- -- 35
2019-11-29 09:00:00 21.5 7 Sur 13 Oeste 0 -- -- 40
2019-11-29 08:00:00 17.5 9 Oeste 17 Sudoeste 0 -- -- 49
2019-11-29 07:00:00 17.1 9 Oeste 13 Oeste 0 -- -- 49
2019-11-29 06:00:00 15.6 5 Oeste 14 Oeste 0 -- -- 57
2019-11-29 05:00:00 15.1 8 Sudoeste 14 Sudoeste 0 -- -- 61
2019-11-29 04:00:00 15.4 8 Oeste 17 Oeste 0 -- -- 63
2019-11-29 03:00:00 15.5 8 Sudoeste 16 Oeste 0 -- -- 62
2019-11-29 02:00:00 15.9 12 Oeste 16 Oeste 0 -- -- 62
2019-11-29 01:00:00 15.8 7 Sudoeste 16 Oeste 0 -- -- 63
2019-11-29 00:00:00 16.2 9 Sudoeste 17 Sudoeste 0 -- -- 63
2019-11-28 23:00:00 15.8 9 Oeste 15 Oeste 0 -- -- 67
2019-11-28 22:00:00 16 6 Oeste 12 Oeste 0 -- -- 70
2019-11-28 21:00:00 16.1 9 Sudoeste 14 Oeste 0 -- -- 83
2019-11-28 20:00:00 16.9 6 Noroeste 15 Norte 0 -- -- 88
2019-11-28 19:00:00 17.2 7 Norte 13 Norte 0 -- -- 87
2019-11-28 18:00:00 18 4 Noroeste 12 Oeste 0 -- -- 83
2019-11-28 17:00:00 18.9 4 Sudeste 10 Sudeste 0 -- -- 80
2019-11-28 16:00:00 19.3 6 Este 12 Sudeste 0 -- -- 79
2019-11-28 15:00:00 19.7 6 Este 17 Este 0 -- -- 75
2019-11-28 14:00:00 20.5 11 Este 17 Este 0 -- -- 73
2019-11-28 13:00:00 20.5 9 Este 15 Este 0 -- -- 71
2019-11-28 12:00:00 20.2 10 Este 16 Este 0 -- -- 72
2019-11-28 11:00:00 20 5 Norte 15 Norte 0 -- -- 70
2019-11-28 10:00:00 18.5 8 Noroeste 13 Noroeste 0 -- -- 75
2019-11-28 09:00:00 15.4 8 Oeste 20 Oeste 0 -- -- 82
2019-11-28 08:00:00 13.8 10 Oeste 22 Oeste 0 -- -- 85
2019-11-28 07:00:00 13.7 15 Oeste 21 Oeste 0 -- -- 84
2019-11-28 06:00:00 13.5 15 Oeste 19 Oeste 0 -- -- 84
2019-11-28 05:00:00 13.3 12 Oeste 17 Oeste 0 -- -- 85
2019-11-28 04:00:00 13.6 6 Sudoeste 19 Oeste 0 -- -- 85
2019-11-28 03:00:00 13.8 14 Oeste 19 Oeste 0 -- -- 82
2019-11-28 02:00:00 14.7 8 Oeste 15 Oeste 0 -- -- 81
2019-11-28 01:00:00 14.9 9 Oeste 15 Oeste 0 -- -- 81
2019-11-28 00:00:00 15.1 12 Oeste 15 Oeste 0 -- -- 80
2019-11-27 23:00:00 15.9 9 Noroeste 19 Noroeste 0 -- -- 85
2019-11-27 22:00:00 15.8 11 Oeste 17 Oeste 0 -- -- 80
2019-11-27 21:00:00 16 9 Oeste 24 Noroeste 0 -- -- 83
2019-11-27 20:00:00 16.5 10 Noroeste 21 Noroeste 0 -- -- 84
2019-11-27 19:00:00 16.6 12 Noroeste 22 Norte 0 -- -- 84
2019-11-27 18:00:00 17.3 11 Norte 22 Nordeste 0 -- -- 81
2019-11-27 17:00:00 19.2 13 Norte 22 Norte 0 -- -- 74
2019-11-27 16:00:00 20.6 14 Norte 21 Nordeste 0 -- -- 69
2019-11-27 15:00:00 20.6 10 Norte 25 Nordeste 0 -- -- 71
2019-11-27 14:00:00 20 13 Nordeste 26 Nordeste 0 -- -- 73
2019-11-27 13:00:00 20.2 11 Nordeste 24 Este 0 -- -- 71
2019-11-27 05:00:00 -- -- -- -- -- -- -- -- --
2019-11-27 04:00:00 15.1 12 Oeste 17 Oeste 0 -- -- 83
2019-11-27 03:00:00 15.1 10 Oeste 24 Oeste 0 -- -- 84
2019-11-27 02:00:00 16.6 10 Noroeste 23 Oeste 0 -- -- 82
2019-11-27 01:00:00 16.4 8 Oeste 21 Noroeste 0 -- -- 82
2019-11-27 00:00:00 16.5 7 Noroeste 18 Noroeste 0 -- -- 83
2019-11-26 23:00:00 16.8 8 Noroeste 23 Noroeste 0 -- -- 81
2019-11-26 22:00:00 16.9 11 Noroeste 24 Oeste 0 -- -- 81
2019-11-26 21:00:00 16.8 13 Noroeste 28 Oeste 0 -- -- 81
2019-11-26 20:00:00 16.7 10 Noroeste 22 Noroeste 0 -- -- 83
2019-11-26 19:00:00 17.1 11 Noroeste 27 Noroeste 0 -- -- 82
2019-11-26 18:00:00 17.3 15 Noroeste 30 Noroeste 0 -- -- 81
2019-11-26 17:00:00 17.9 18 Noroeste 30 Noroeste 0 -- -- 78
2019-11-26 16:00:00 19.2 17 Noroeste 30 Noroeste 0 -- -- 74
2019-11-26 15:00:00 21 15 Norte 23 Norte 0 -- -- 69
2019-11-26 14:00:00 20.5 12 Este 22 Este 0 -- -- 70
2019-11-26 13:00:00 21.2 6 Norte 22 Norte 0 -- -- 67
2019-11-26 12:00:00 20.7 14 Norte 23 Nordeste 0 -- -- 69
2019-11-26 11:00:00 19.6 9 Norte 20 Norte 0 -- -- 73
2019-11-26 10:00:00 18.1 10 Noroeste 20 Noroeste 0 -- -- 75
2019-11-26 09:00:00 16.2 7 Oeste 17 Oeste 0 -- -- 81
2019-11-26 08:00:00 15.7 11 Oeste 17 Oeste 0 -- -- 82
2019-11-26 07:00:00 15.9 10 Noroeste 21 Oeste 0 -- -- 83
2019-11-26 06:00:00 15.3 12 Oeste 17 Oeste 0 -- -- 81
2019-11-26 05:00:00 15.9 10 Oeste 18 Oeste 0 -- -- 82
2019-11-26 04:00:00 15.6 9 Oeste 20 Oeste 0 -- -- 81
2019-11-26 03:00:00 15.3 10 Oeste 22 Oeste 0 -- -- 83
2019-11-26 02:00:00 16.1 11 Oeste 21 Oeste 0 -- -- 81
2019-11-26 01:00:00 16.5 12 Oeste 23 Noroeste 0 -- -- 80
2019-11-26 00:00:00 16.8 6 Noroeste 26 Oeste 0 -- -- 79
2019-11-25 23:00:00 16.8 10 Noroeste 19 Noroeste 0 -- -- 81
2019-11-25 22:00:00 16.9 9 Noroeste 20 Noroeste 0 -- -- 80
2019-11-25 21:00:00 16.9 10 Noroeste 21 Noroeste 0 -- -- 80
2019-11-25 20:00:00 16.9 14 Noroeste 21 Noroeste 0 -- -- 81
2019-11-25 19:00:00 16.9 11 Oeste 25 Noroeste 0 -- -- 76
2019-11-25 18:00:00 17 13 Noroeste 27 Noroeste 0 -- -- 77
2019-11-25 17:00:00 17.6 14 Noroeste 24 Norte 0 -- -- 76
2019-11-25 16:00:00 18.4 13 Noroeste 27 Norte 0 -- -- 69
2019-11-25 15:00:00 19 12 Norte 30 Nordeste 0 -- -- 70
2019-11-25 14:00:00 19.5 13 Norte 25 Norte 0 -- -- 70
2019-11-25 13:00:00 20 12 Norte 23 Norte 0 -- -- 67
2019-11-25 12:00:00 18.8 10 Nordeste 24 Norte 0 -- -- 69
2019-11-25 11:00:00 18.6 12 Norte 20 Noroeste 0 -- -- 74
2019-11-25 10:00:00 18.3 13 Norte 22 Noroeste 0 -- -- 73
2019-11-25 09:00:00 16.2 12 Oeste 24 Oeste 0 -- -- 71
2019-11-25 08:00:00 14.2 15 Oeste 19 Oeste 0 -- -- 78
2019-11-25 07:00:00 13.7 14 Oeste 20 Oeste 0 -- -- 76
2019-11-25 06:00:00 13.8 14 Oeste 21 Oeste 0 -- -- 76
2019-11-25 05:00:00 13.9 13 Oeste 20 Oeste 0 -- -- 72
2019-11-25 04:00:00 14.7 14 Oeste 21 Oeste 0 -- -- 73
2019-11-25 03:00:00 15.1 13 Oeste 23 Oeste 0 -- -- 74
2019-11-25 02:00:00 16 14 Oeste 26 Noroeste 0 -- -- 71
2019-11-25 01:00:00 16.6 11 Noroeste 25 Noroeste 0 -- -- 71
2019-11-25 00:00:00 16.8 13 Oeste 21 Norte 0 -- -- 71
2019-11-24 23:00:00 16.9 8 Noroeste 21 Oeste 0 -- -- 74
2019-11-24 22:00:00 17 11 Oeste 24 Noroeste 0 -- -- 71
2019-11-24 21:00:00 16.8 9 Noroeste 28 Oeste 0 -- -- 74
2019-11-24 20:00:00 17.2 19 Noroeste 28 Noroeste 0 -- -- 77
2019-11-24 19:00:00 17.2 18 Noroeste 31 Oeste 0 -- -- 76
2019-11-24 18:00:00 17.3 13 Noroeste 30 Noroeste 0 -- -- 73
2019-11-24 17:00:00 18.1 17 Noroeste 34 Norte 0 -- -- 73
2019-11-24 16:00:00 19.5 24 Norte 34 Norte 0 -- -- 72
2019-11-24 15:00:00 20.9 14 Norte 27 Norte 0 -- -- 66
2019-11-24 14:00:00 21 13 Noroeste 32 Norte 0 -- -- 61
2019-11-24 13:00:00 19.8 16 Norte 35 Norte 0 -- -- 72
2019-11-24 12:00:00 19.6 17 Noroeste 35 Norte 0 -- -- 73
2019-11-24 11:00:00 19 14 Noroeste 26 Noroeste 0 -- -- 75
2019-11-24 10:00:00 18.3 12 Noroeste 27 Noroeste 0 -- -- 80
2019-11-24 09:00:00 17.5 13 Oeste 22 Noroeste 0 -- -- 85
2019-11-24 08:00:00 16.6 9 Noroeste 24 Noroeste 0.2 -- -- 91
2019-11-24 07:00:00 17.8 14 Noroeste 30 Norte 0 -- -- 81
2019-11-24 06:00:00 18.1 12 Noroeste 28 Oeste 0 -- -- 74
2019-11-24 05:00:00 18 12 Noroeste 26 Oeste 0 -- -- 73
2019-11-24 04:00:00 17.4 12 Oeste 25 Oeste 0 -- -- 78
2019-11-24 03:00:00 17.6 14 Noroeste 27 Oeste 0 -- -- 79
2019-11-24 02:00:00 17.5 12 Oeste 28 Noroeste 0 -- -- 78
2019-11-24 01:00:00 17.9 15 Noroeste 31 Oeste 0 -- -- 78
2019-11-24 00:00:00 17.9 15 Noroeste 29 Oeste 0 -- -- 78
2019-11-23 23:00:00 17.8 14 Oeste 30 Oeste 0 -- -- 77
2019-11-23 22:00:00 17.8 14 Noroeste 31 Noroeste 0 -- -- 77
2019-11-23 21:00:00 17.8 14 Oeste 30 Noroeste 0 -- -- 76
2019-11-23 20:00:00 17.9 12 Noroeste 31 Noroeste 0 -- -- 83
2019-11-23 19:00:00 18.1 16 Noroeste 35 Noroeste 0.2 -- -- 84
2019-11-23 18:00:00 18.3 14 Noroeste 28 Noroeste 0 -- -- 86
2019-11-23 17:00:00 18.3 15 Noroeste 31 Norte 1 -- -- 88
2019-11-23 16:00:00 21.3 14 Noroeste 32 Oeste 0 -- -- 75
2019-11-23 15:00:00 21.4 16 Oeste 34 Oeste 0 -- -- 71
2019-11-23 14:00:00 21.3 19 Noroeste 35 Noroeste 0 -- -- 70
2019-11-23 13:00:00 21.7 19 Noroeste 36 Noroeste 0 -- -- 71
2019-11-23 12:00:00 21.6 19 Noroeste 35 Noroeste 0 -- -- 68
2019-11-23 11:00:00 20.9 21 Noroeste 40 Oeste 0 -- -- 70
2019-11-23 10:00:00 20.3 18 Noroeste 38 Noroeste 0 -- -- 73
2019-11-23 09:00:00 19.3 10 Noroeste 31 Noroeste 0 -- -- 81
2019-11-23 08:00:00 18.4 10 Noroeste 26 Noroeste 0 -- -- 85
2019-11-23 07:00:00 18.3 6 Noroeste 27 Noroeste 0 -- -- 87
2019-11-23 06:00:00 18.6 10 Noroeste 26 Noroeste 0 -- -- 85
2019-11-23 05:00:00 15.7 5 Sudoeste 10 Sudoeste 0 -- -- 88
2019-11-23 04:00:00 15.6 6 Sudoeste 12 Sudoeste 0 -- -- 88
2019-11-23 03:00:00 16.6 5 Sudeste 9 Sudeste 0 -- -- 87
2019-11-23 02:00:00 16.1 4 Norte 14 Oeste 0 -- -- 88
2019-11-23 01:00:00 15.6 6 Oeste 10 Oeste 0 -- -- 88
2019-11-23 00:00:00 16.1 7 Oeste 12 Oeste 0 -- -- 87
2019-11-22 23:00:00 16.1 7 Sudoeste 10 Oeste 0 -- -- 86
2019-11-22 22:00:00 16.5 6 Sudoeste 9 Sudoeste 0 -- -- 85
2019-11-22 21:00:00 17 4 Sur 7 Sudoeste 0 -- -- 85
2019-11-22 20:00:00 17.5 3 Sudoeste 9 Sudoeste 0 -- -- 84
2019-11-22 19:00:00 18.3 4 Sudoeste 7 Sudoeste 0 -- -- 81
2019-11-22 18:00:00 19.5 4 Sur 12 Este 0 -- -- 78
2019-11-22 17:00:00 21.1 6 Este 17 Sudeste 0 -- -- 72
2019-11-22 16:00:00 21.7 11 Este 21 Este 0 -- -- 69
2019-11-22 15:00:00 22.3 8 Nordeste 23 Norte 0 -- -- 65
2019-11-22 14:00:00 21.9 15 Norte 28 Noroeste 0 -- -- 67
2019-11-22 13:00:00 21.9 14 Noroeste 23 Norte 0 -- -- 68
2019-11-22 12:00:00 21.8 15 Norte 27 Norte 0 -- -- 71
2019-11-22 11:00:00 21.2 14 Norte 25 Norte 0 -- -- 72
2019-11-22 10:00:00 19.4 13 Noroeste 22 Norte 0 -- -- 82
2019-11-22 09:00:00 18.9 4 Noroeste 9 Oeste 0 -- -- 80
2019-11-22 08:00:00 15.5 8 Sudoeste 16 Oeste 0 -- -- 83
2019-11-22 07:00:00 15 9 Sudoeste 14 Oeste 0 -- -- 83
2019-11-22 06:00:00 15.2 7 Oeste 15 Oeste 0 -- -- 84
2019-11-22 05:00:00 15.6 9 Oeste 15 Oeste 0 -- -- 82
2019-11-22 04:00:00 15.5 9 Oeste 16 Oeste 0 -- -- 83
2019-11-22 03:00:00 15.5 9 Oeste 16 Oeste 0 -- -- 84
2019-11-22 02:00:00 15.7 10 Oeste 17 Oeste 0 -- -- 84
2019-11-22 01:00:00 15.9 12 Oeste 17 Oeste 0 -- -- 84
2019-11-22 00:00:00 15.6 8 Oeste 12 Oeste 0 -- -- 85
2019-11-21 23:00:00 15.4 8 Sudoeste 14 Oeste 0 -- -- 86
2019-11-21 22:00:00 15 7 Sudoeste 12 Oeste 0 -- -- 88
2019-11-21 21:00:00 15 5 Oeste 10 Sudoeste 0 -- -- 89
2019-11-21 20:00:00 15.3 6 Oeste 12 Sudoeste 0 -- -- 89
2019-11-21 19:00:00 16.2 4 Sudoeste 5 Sudoeste 0 -- -- 86
2019-11-21 18:00:00 17.5 3 Este 8 Este 0 -- -- 81
2019-11-21 17:00:00 18 5 Este 12 Este 0 -- -- 80
2019-11-21 16:00:00 18.5 3 Oeste 6 Oeste 0 -- -- 80
2019-11-21 15:00:00 17.9 2 Este 8 Este 0 -- -- 81
2019-11-21 14:00:00 17.7 5 Este 10 Este 0 -- -- 83
2019-11-21 13:00:00 17.9 6 Este 15 Este 0 -- -- 81
2019-11-21 12:00:00 18.5 9 Este 15 Este 0 -- -- 80
2019-11-21 11:00:00 18.4 5 Este 14 Este 0 -- -- 80
2019-11-21 10:00:00 19 7 Este 13 Sudeste 0 -- -- 74
2019-11-21 09:00:00 18.2 4 Nordeste 10 Oeste 0 -- -- 73
2019-11-21 08:00:00 15.3 8 Oeste 14 Oeste 0 -- -- 81
2019-11-21 07:00:00 -- -- -- -- -- -- -- -- --
2019-11-21 06:00:00 -- -- -- -- -- -- -- -- --
2019-11-21 05:00:00 -- -- -- -- -- -- -- -- --
2019-11-21 04:00:00 -- -- -- -- -- -- -- -- --
2019-11-21 03:00:00 -- -- -- -- -- -- -- -- --
2019-11-21 02:00:00 -- -- -- -- -- -- -- -- --
2019-11-21 01:00:00 -- -- -- -- -- -- -- -- --
2019-11-21 00:00:00 -- -- -- -- -- -- -- -- --
2019-11-20 23:00:00 -- -- -- -- -- -- -- -- --
2019-11-20 22:00:00 -- -- -- -- -- -- -- -- --
2019-11-20 21:00:00 -- -- -- -- -- -- -- -- --
2019-11-20 20:00:00 -- -- -- -- -- -- -- -- --
2019-11-20 19:00:00 16.7 6 Sudoeste 8 Sudoeste 0 -- -- 81
2019-11-20 18:00:00 17.9 5 Este 12 Este 0 -- -- 78
2019-11-20 17:00:00 18.9 7 Este 15 Este 0 -- -- 71
2019-11-20 16:00:00 20.3 9 Sudeste 18 Este 0 -- -- 63
2019-11-20 15:00:00 20.6 10 Este 19 Este 0 -- -- 64
2019-11-20 14:00:00 20.6 10 Este 21 Este 0 -- -- 57
2019-11-20 13:00:00 21.3 9 Este 21 Este 0 -- -- 55
2019-11-20 12:00:00 21.3 10 Este 17 Este 0 -- -- 57
2019-11-20 11:00:00 20.4 7 Este 14 Este 0 -- -- 57
2019-11-20 10:00:00 19.7 3 Este 8 Nordeste 0 -- -- 61
2019-11-20 09:00:00 16.5 5 Sudoeste 13 Oeste 0 -- -- 70
2019-11-20 08:00:00 14 9 Oeste 15 Oeste 0 -- -- 76
2019-11-20 07:00:00 13.4 7 Sudoeste 15 Sudoeste 0 -- -- 77
2019-11-20 06:00:00 13.5 8 Sudoeste 13 Oeste 0 -- -- 75
2019-11-20 05:00:00 13.2 8 Sudoeste 15 Oeste 0 -- -- 76
2019-11-20 04:00:00 13.4 8 Sudoeste 14 Sudoeste 0 -- -- 75
2019-11-20 03:00:00 13.4 9 Oeste 14 Oeste 0 -- -- 73
2019-11-20 02:00:00 13.7 9 Oeste 15 Oeste 0 -- -- 72
2019-11-20 01:00:00 14 6 Sudoeste 10 Oeste 0 -- -- 73
2019-11-20 00:00:00 14.4 7 Sudoeste 14 Oeste 0 -- -- 73
2019-11-19 23:00:00 15.4 10 Oeste 18 Oeste 0 -- -- 69
2019-11-19 22:00:00 15.5 14 Oeste 20 Oeste 0 -- -- 71
2019-11-19 21:00:00 16.5 10 Noroeste 21 Noroeste 0 -- -- 74
2019-11-19 20:00:00 16.4 9 Noroeste 22 Noroeste 0 -- -- 76
2019-11-19 19:00:00 16.6 9 Noroeste 24 Noroeste 0 -- -- 78
2019-11-19 18:00:00 17.2 13 Noroeste 28 Noroeste 0 -- -- 77
2019-11-19 17:00:00 19.1 14 Noroeste 31 Noroeste 0 -- -- 70
2019-11-19 16:00:00 19.1 23 Noroeste 36 Norte 0 -- -- 72
2019-11-19 15:00:00 19.1 19 Noroeste 33 Noroeste 0 -- -- 71
2019-11-19 14:00:00 17.7 16 Noroeste 33 Noroeste 0 -- -- 81
2019-11-19 13:00:00 16.7 14 Noroeste 34 Norte 0.4 -- -- 89
2019-11-19 12:00:00 19.3 15 Noroeste 33 Noroeste 0 -- -- 71
2019-11-19 11:00:00 19.2 19 Norte 30 Noroeste 0 -- -- 73
2019-11-19 10:00:00 18.8 11 Noroeste 27 Noroeste 0 -- -- 72
2019-11-19 09:00:00 18.6 10 Noroeste 17 Noroeste 0 -- -- 66
2019-11-19 08:00:00 16.3 13 Oeste 23 Oeste 0 -- -- 74
2019-11-19 07:00:00 15.5 12 Oeste 19 Oeste 0 -- -- 72
2019-11-19 06:00:00 14.9 15 Oeste 22 Oeste 0 -- -- 72
2019-11-19 05:00:00 15 14 Oeste 18 Oeste 0 -- -- 74
2019-11-19 04:00:00 14.5 9 Oeste 18 Oeste 0 -- -- 74
2019-11-19 03:00:00 15.3 11 Oeste 21 Noroeste 0 -- -- 75
2019-11-19 02:00:00 15.4 12 Oeste 35 Noroeste 0 -- -- 78
2019-11-19 01:00:00 15.9 14 Noroeste 25 Oeste 0 -- -- 76
2019-11-19 00:00:00 16.1 15 Oeste 25 Oeste 0 -- -- 69
2019-11-18 23:00:00 15.7 10 Oeste 22 Oeste 0 -- -- 72
2019-11-18 22:00:00 15.9 10 Noroeste 25 Oeste 0 -- -- 74
2019-11-18 21:00:00 15.8 9 Oeste 24 Noroeste 0 -- -- 79
2019-11-18 20:00:00 16.5 12 Oeste 22 Oeste 0 -- -- 74
2019-11-18 19:00:00 16.4 8 Noroeste 16 Noroeste 0 -- -- 74
2019-11-18 18:00:00 16.4 9 Norte 19 Noroeste 0 -- -- 72
2019-11-18 17:00:00 17.6 10 Norte 21 Norte 0 -- -- 68
2019-11-18 16:00:00 18.6 11 Nordeste 26 Norte 0 -- -- 65
2019-11-18 15:00:00 18.6 13 Nordeste 27 Nordeste 0 -- -- 67
2019-11-18 14:00:00 19.1 11 Nordeste 27 Norte 0 -- -- 61
2019-11-18 13:00:00 18.9 11 Norte 31 Nordeste 0 -- -- 62
2019-11-18 12:00:00 18 13 Nordeste 26 Nordeste 0 -- -- 66
2019-11-18 11:00:00 17 9 Noroeste 20 Noroeste 0 -- -- 75
2019-11-18 10:00:00 16.6 8 Noroeste 17 Oeste 0 -- -- 75
2019-11-18 09:00:00 15.9 9 Oeste 17 Noroeste 0 -- -- 76
2019-11-18 08:00:00 15.3 7 Noroeste 15 Noroeste 0 -- -- 79
2019-11-18 07:00:00 15.1 10 Oeste 19 Noroeste 0 -- -- 77
2019-11-18 06:00:00 15.1 10 Oeste 23 Oeste 0 -- -- 76
2019-11-18 05:00:00 14.8 14 Oeste 20 Oeste 0 -- -- 77
2019-11-18 04:00:00 14 13 Oeste 21 Oeste 0 -- -- 77
2019-11-18 03:00:00 13.9 15 Oeste 22 Oeste 0 -- -- 76
2019-11-18 02:00:00 14.1 14 Oeste 22 Oeste 0 -- -- 79
2019-11-18 01:00:00 14.6 10 Oeste 21 Oeste 0 -- -- 78
2019-11-18 00:00:00 15.1 8 Oeste 21 Noroeste 0 -- -- 77
2019-11-17 23:00:00 15.3 10 Noroeste 22 Noroeste 0 -- -- 77
2019-11-17 22:00:00 15.3 11 Noroeste 25 Noroeste 0 -- -- 79
2019-11-17 21:00:00 15.2 9 Noroeste 24 Noroeste 0 -- -- 81
2019-11-17 20:00:00 15.3 13 Norte 25 Noroeste 0 -- -- 81
2019-11-17 19:00:00 15.2 12 Noroeste 22 Oeste 0 -- -- 83
2019-11-17 18:00:00 14.8 8 Noroeste 19 Norte 0 -- -- 86
2019-11-17 17:00:00 15.7 10 Norte 26 Nordeste 0 -- -- 80
2019-11-17 16:00:00 16.5 12 Norte 28 Norte 0 -- -- 75
2019-11-17 15:00:00 15.7 9 Norte 23 Noroeste 0 -- -- 79
2019-11-17 14:00:00 14.7 9 Noroeste 28 Nordeste 0.2 -- -- 90
2019-11-17 13:00:00 16.2 15 Nordeste 31 Norte 0 -- -- 78
2019-11-17 12:00:00 16.3 12 Norte 34 Norte 0 -- -- 71
2019-11-17 11:00:00 15.5 15 Norte 26 Norte 0 -- -- 79
2019-11-17 10:00:00 14.7 11 Norte 32 Norte 0.2 -- -- 83
2019-11-17 09:00:00 14.8 9 Noroeste 20 Noroeste 0 -- -- 79
2019-11-17 08:00:00 13.6 10 Oeste 24 Norte 0.4 -- -- 90
2019-11-17 07:00:00 14 13 Norte 30 Norte 0.4 -- -- 87
2019-11-17 06:00:00 14.1 9 Noroeste 21 Noroeste 0.6 -- -- 85
2019-11-17 05:00:00 14.5 14 Oeste 23 Norte 0 -- -- 79
2019-11-17 04:00:00 14.8 9 Noroeste 24 Norte 0 -- -- 82
2019-11-17 03:00:00 14.8 10 Noroeste 24 Norte 0.2 -- -- 85
2019-11-17 02:00:00 14.9 11 Noroeste 24 Noroeste 0.2 -- -- 82
2019-11-17 01:00:00 14.9 10 Oeste 23 Noroeste 0 -- -- 82
2019-11-17 00:00:00 14.6 13 Noroeste 28 Noroeste 0 -- -- 85
2019-11-16 23:00:00 14.9 11 Noroeste 26 Noroeste 0.2 -- -- 87
2019-11-16 22:00:00 15.5 13 Noroeste 31 Noroeste 0 -- -- 78
2019-11-16 21:00:00 15.6 15 Noroeste 33 Noroeste 0.2 -- -- 80
2019-11-16 20:00:00 15.7 12 Noroeste 30 Norte 0 -- -- 79
2019-11-16 19:00:00 16.3 18 Noroeste 37 Noroeste 0 -- -- 73
2019-11-16 18:00:00 16.2 19 Noroeste 36 Noroeste 0 -- -- 69
2019-11-16 17:00:00 16.8 22 Noroeste 39 Noroeste 0 -- -- 69
2019-11-16 16:00:00 17.2 19 Noroeste 44 Noroeste 0 -- -- 65
2019-11-16 15:00:00 17.8 20 Noroeste 45 Noroeste 0 -- -- 61
2019-11-16 14:00:00 17.7 20 Noroeste 42 Noroeste 0 -- -- 62
2019-11-16 13:00:00 18.2 18 Noroeste 49 Noroeste 0 -- -- 58
2019-11-16 12:00:00 17.7 21 Noroeste 47 Norte 0 -- -- 59
2019-11-16 11:00:00 16.6 19 Oeste 39 Noroeste 0.2 -- -- 72
2019-11-16 10:00:00 15.8 19 Noroeste 40 Noroeste 0 -- -- 78
2019-11-16 09:00:00 16.1 21 Noroeste 39 Noroeste 0 -- -- 73
2019-11-16 08:00:00 14.6 14 Noroeste 35 Noroeste 0 -- -- 82
2019-11-16 07:00:00 15.2 14 Noroeste 33 Noroeste 0 -- -- 78
2019-11-16 06:00:00 15.1 18 Noroeste 37 Noroeste 0.2 -- -- 80
2019-11-16 05:00:00 15 15 Noroeste 34 Norte 0 -- -- 78
2019-11-16 04:00:00 14.8 13 Noroeste 40 Noroeste 0.2 -- -- 86
2019-11-16 03:00:00 14.2 17 Oeste 52 Noroeste 0 -- -- 81
2019-11-16 02:00:00 14.8 14 Noroeste 38 Noroeste 0 -- -- 81
2019-11-16 01:00:00 14.3 15 Noroeste 48 Noroeste 0.2 -- -- 83
2019-11-16 00:00:00 15 14 Noroeste 38 Noroeste 0 -- -- 79
2019-11-15 23:00:00 15.5 13 Norte 32 Noroeste 0 -- -- 80
2019-11-15 22:00:00 15.5 14 Norte 35 Noroeste 0 -- -- 78
2019-11-15 21:00:00 15.5 14 Norte 35 Norte 0 -- -- 83
2019-11-15 20:00:00 15.3 11 Norte 31 Norte 0.2 -- -- 82
2019-11-15 19:00:00 15.7 12 Norte 28 Norte 0 -- -- 73
2019-11-15 18:00:00 15.6 9 Noroeste 39 Norte 0 -- -- 76
2019-11-15 17:00:00 16.4 14 Norte 37 Norte 0 -- -- 69
2019-11-15 16:00:00 16.1 15 Norte 40 Nordeste 0 -- -- 76
2019-11-15 15:00:00 16.9 13 Norte 41 Norte 0 -- -- 74
2019-11-15 14:00:00 16 15 Noroeste 38 Norte 0.4 -- -- 81
2019-11-15 13:00:00 16.4 13 Norte 37 Nordeste 1.8 -- -- 85
2019-11-15 12:00:00 15.8 10 Norte 40 Nordeste 1.8 -- -- 89
2019-11-15 11:00:00 16 9 Norte 39 Norte 1 -- -- 89
2019-11-15 10:00:00 16.3 16 Norte 30 Norte 0.6 -- -- 86
2019-11-15 09:00:00 15.8 15 Norte 38 Noroeste 1.2 -- -- 90
2019-11-15 08:00:00 15.4 13 Noroeste 41 Norte 1.2 -- -- 90
2019-11-15 07:00:00 16.1 14 Noroeste 31 Oeste 0.4 -- -- 85
2019-11-15 06:00:00 16.4 17 Noroeste 30 Noroeste 0 -- -- 82
2019-11-15 05:00:00 16.8 19 Oeste 35 Oeste 0 -- -- 71
2019-11-15 04:00:00 16.2 12 Noroeste 28 Noroeste 0 -- -- 78
2019-11-15 03:00:00 15.9 14 Noroeste 34 Noroeste 0.2 -- -- 83
2019-11-15 02:00:00 16.3 12 Noroeste 29 Noroeste 0 -- -- 74
2019-11-15 01:00:00 15.9 13 Noroeste 31 Noroeste 0.2 -- -- 82
2019-11-15 00:00:00 15.5 17 Norte 42 Norte 0.2 -- -- 88
2019-11-14 23:00:00 17 14 Noroeste 29 Noroeste 0.2 -- -- 82
2019-11-14 22:00:00 16.8 12 Noroeste 25 Noroeste 0 -- -- 86
2019-11-14 21:00:00 17 11 Norte 24 Noroeste 0.2 -- -- 83
2019-11-14 20:00:00 17.2 12 Noroeste 27 Norte 0 -- -- 82
2019-11-14 19:00:00 17.3 10 Noroeste 26 Oeste 0 -- -- 84
2019-11-14 18:00:00 17.6 10 Noroeste 22 Norte 0 -- -- 80
2019-11-14 17:00:00 18.2 13 Noroeste 25 Noroeste 0 -- -- 74
2019-11-14 16:00:00 18.7 9 Norte 27 Norte 0 -- -- 74
2019-11-14 15:00:00 18.7 13 Norte 35 Norte 0 -- -- 74
2019-11-14 14:00:00 17.8 9 Noroeste 33 Norte 0 -- -- 82
2019-11-14 13:00:00 18.7 15 Norte 33 Norte 0 -- -- 76
2019-11-14 12:00:00 19.2 15 Noroeste 29 Noroeste 0 -- -- 73
2019-11-14 11:00:00 19.2 15 Norte 31 Norte 0 -- -- 68
2019-11-14 10:00:00 18.3 12 Noroeste 29 Noroeste 0 -- -- 74
2019-11-14 09:00:00 17.7 14 Noroeste 28 Noroeste 0 -- -- 79
2019-11-14 08:00:00 17.4 14 Oeste 28 Oeste 0 -- -- 74
2019-11-14 07:00:00 17.1 17 Oeste 31 Oeste 0 -- -- 72
2019-11-14 06:00:00 16.8 14 Oeste 29 Noroeste 0 -- -- 78
2019-11-14 05:00:00 16.7 14 Noroeste 33 Noroeste 0 -- -- 77
2019-11-14 04:00:00 16.9 15 Oeste 32 Oeste 0 -- -- 75
2019-11-14 03:00:00 16.9 13 Noroeste 30 Noroeste 0 -- -- 75
2019-11-14 02:00:00 16.8 15 Oeste 35 Noroeste 0 -- -- 76
2019-11-14 01:00:00 17 19 Noroeste 34 Noroeste 0 -- -- 76
2019-11-14 00:00:00 17 18 Oeste 34 Oeste 0 -- -- 74
2019-11-13 23:00:00 17.1 19 Noroeste 33 Noroeste 0 -- -- 73
2019-11-13 22:00:00 17.2 16 Noroeste 38 Noroeste 0 -- -- 76
2019-11-13 21:00:00 17.1 14 Noroeste 32 Noroeste 0 -- -- 76
2019-11-13 20:00:00 17.2 17 Noroeste 36 Noroeste 0 -- -- 74
2019-11-13 19:00:00 17.5 24 Noroeste 41 Noroeste 0 -- -- 75
2019-11-13 18:00:00 17.6 24 Noroeste 43 Noroeste 0 -- -- 76
2019-11-13 17:00:00 18.9 21 Noroeste 44 Noroeste 0 -- -- 73
2019-11-13 16:00:00 18.6 24 Noroeste 41 Noroeste 0 -- -- 68
2019-11-13 15:00:00 19.5 19 Noroeste 39 Noroeste 0 -- -- 69
2019-11-13 14:00:00 19.9 21 Noroeste 40 Noroeste 0 -- -- 68
2019-11-13 13:00:00 19.4 19 Noroeste 40 Noroeste 0 -- -- 69
2019-11-13 12:00:00 19.2 19 Noroeste 41 Oeste 0 -- -- 69
2019-11-13 11:00:00 18.8 21 Noroeste 45 Noroeste 0 -- -- 71
2019-11-13 10:00:00 18.3 24 Noroeste 41 Noroeste 0 -- -- 73
2019-11-13 09:00:00 17.7 17 Noroeste 35 Noroeste 0 -- -- 78
2019-11-13 08:00:00 17.3 15 Noroeste 35 Noroeste 0 -- -- 80
2019-11-13 07:00:00 17.1 20 Noroeste 36 Oeste 0 -- -- 82
2019-11-13 06:00:00 17.3 20 Noroeste 33 Noroeste 0 -- -- 79
2019-11-13 05:00:00 17.5 13 Noroeste 38 Oeste 0 -- -- 75
2019-11-13 04:00:00 17.6 13 Noroeste 31 Oeste 0 -- -- 72
2019-11-13 03:00:00 17.7 10 Oeste 42 Oeste 0 -- -- 69
2019-11-13 02:00:00 17.9 15 Noroeste 41 Oeste 0 -- -- 64
2019-11-13 01:00:00 17.7 17 Oeste 39 Oeste 0 -- -- 67
2019-11-13 00:00:00 17.6 18 Noroeste 41 Oeste 0 -- -- 70
2019-11-12 23:00:00 17.4 15 Noroeste 40 Oeste 0 -- -- 70
2019-11-12 22:00:00 17.4 20 Oeste 36 Oeste 0 -- -- 70
2019-11-12 21:00:00 17.3 13 Noroeste 35 Noroeste 0 -- -- 73
2019-11-12 20:00:00 17.5 15 Noroeste 37 Noroeste 0 -- -- 79
2019-11-12 19:00:00 18 19 Noroeste 45 Noroeste 0 -- -- 79
2019-11-12 18:00:00 18.1 18 Noroeste 39 Noroeste 0 -- -- 81
2019-11-12 17:00:00 18.3 22 Noroeste 41 Noroeste 0.2 -- -- 83
2019-11-12 16:00:00 20.1 20 Noroeste 44 Noroeste 0 -- -- 74
2019-11-12 15:00:00 19.2 22 Noroeste 44 Noroeste 0 -- -- 80
2019-11-12 14:00:00 19.6 22 Noroeste 37 Noroeste 0 -- -- 79
2019-11-12 13:00:00 18.5 19 Noroeste 40 Noroeste 0.2 -- -- 86
2019-11-12 12:00:00 19.5 20 Noroeste 40 Noroeste 0 -- -- 76
2019-11-12 11:00:00 18 19 Noroeste 37 Norte 0.2 -- -- 87
2019-11-12 10:00:00 17.8 14 Noroeste 37 Noroeste 0.6 -- -- 86
2019-11-12 09:00:00 17.4 14 Noroeste 34 Oeste 0.8 -- -- 89
2019-11-12 08:00:00 17.9 19 Noroeste 40 Noroeste 0 -- -- 79
2019-11-12 07:00:00 17.4 19 Noroeste 41 Oeste 0 -- -- 83
2019-11-12 06:00:00 17.5 20 Noroeste 40 Oeste 0 -- -- 81
2019-11-12 05:00:00 17.5 18 Noroeste 43 Oeste 0 -- -- 80
2019-11-12 04:00:00 17.3 22 Noroeste 41 Noroeste 0 -- -- 79
2019-11-12 03:00:00 17.3 19 Noroeste 45 Noroeste 0 -- -- 79
2019-11-12 02:00:00 17.4 27 Noroeste 44 Noroeste 0 -- -- 82
2019-11-12 01:00:00 17.4 18 Noroeste 46 Noroeste 0 -- -- 79
2019-11-12 00:00:00 17.5 18 Noroeste 45 Noroeste 0 -- -- 79
2019-11-11 23:00:00 17.3 18 Noroeste 38 Noroeste 0 -- -- 83
2019-11-11 22:00:00 17.4 23 Noroeste 42 Noroeste 0 -- -- 80
2019-11-11 21:00:00 17.2 21 Noroeste 46 Noroeste 0 -- -- 83
2019-11-11 20:00:00 17.3 27 Noroeste 50 Oeste 0 -- -- 83
2019-11-11 19:00:00 17.6 22 Noroeste 50 Noroeste 0 -- -- 81
2019-11-11 18:00:00 17.7 24 Noroeste 47 Noroeste 0 -- -- 79
2019-11-11 17:00:00 17.7 26 Noroeste 50 Noroeste 0 -- -- 81
2019-11-11 16:00:00 17.8 18 Noroeste 46 Noroeste 0 -- -- 81
2019-11-11 15:00:00 18.2 24 Noroeste 47 Noroeste 0 -- -- 76
2019-11-11 14:00:00 18.7 24 Noroeste 49 Noroeste 0 -- -- 71
2019-11-11 13:00:00 17.7 20 Noroeste 40 Norte 0 -- -- 81
2019-11-11 12:00:00 19 24 Noroeste 45 Noroeste 0 -- -- 71
2019-11-11 11:00:00 19.3 24 Noroeste 45 Noroeste 0 -- -- 67
2019-11-11 10:00:00 19 19 Noroeste 40 Noroeste 0 -- -- 68
2019-11-11 09:00:00 17.7 15 Noroeste 39 Noroeste 0 -- -- 79
2019-11-11 08:00:00 17 18 Noroeste 37 Noroeste 0 -- -- 75
2019-11-11 07:00:00 16.8 15 Noroeste 36 Noroeste 0 -- -- 77
2019-11-11 06:00:00 17.1 15 Noroeste 36 Oeste 0 -- -- 76
2019-11-11 05:00:00 16.9 15 Noroeste 33 Noroeste 0.2 -- -- 77
2019-11-11 04:00:00 17.3 16 Noroeste 39 Oeste 0 -- -- 70
2019-11-11 03:00:00 17 17 Noroeste 35 Noroeste 0 -- -- 72
2019-11-11 02:00:00 17 23 Oeste 35 Oeste 0 -- -- 73
2019-11-11 01:00:00 17.1 16 Noroeste 31 Noroeste 0 -- -- 74
2019-11-11 00:00:00 17.1 13 Oeste 32 Noroeste 0 -- -- 76
2019-11-10 23:00:00 17.1 15 Noroeste 32 Noroeste 0 -- -- 76
2019-11-10 22:00:00 17.2 13 Noroeste 34 Noroeste 0 -- -- 79
2019-11-10 21:00:00 17.2 12 Norte 32 Norte 0 -- -- 80
2019-11-10 20:00:00 17.5 15 Norte 33 Norte 0 -- -- 85
2019-11-10 19:00:00 18.1 14 Norte 31 Noroeste 0 -- -- 84
2019-11-10 18:00:00 18.4 13 Norte 31 Noroeste 0 -- -- 81
2019-11-10 17:00:00 18.8 13 Norte 35 Norte 0 -- -- 75
2019-11-10 16:00:00 20.3 16 Noroeste 31 Noroeste 0 -- -- 71
2019-11-10 15:00:00 19.6 19 Norte 33 Norte 0 -- -- 69
2019-11-10 14:00:00 20 14 Norte 37 Nordeste 0 -- -- 66
2019-11-10 13:00:00 19.9 15 Nordeste 43 Noroeste 0 -- -- 65
2019-11-10 12:00:00 19.2 20 Norte 43 Norte 0 -- -- 66
2019-11-10 11:00:00 18.6 14 Noroeste 36 Norte 0 -- -- 72
2019-11-10 10:00:00 18.4 15 Norte 35 Norte 0 -- -- 66
2019-11-10 09:00:00 17.4 15 Noroeste 39 Norte 0 -- -- 69
2019-11-10 08:00:00 16.5 13 Noroeste 33 Oeste 0 -- -- 75
2019-11-10 07:00:00 16.4 15 Noroeste 30 Noroeste 0 -- -- 74
2019-11-10 06:00:00 16.3 13 Noroeste 30 Noroeste 0 -- -- 77
2019-11-10 05:00:00 16.4 15 Noroeste 30 Noroeste 0 -- -- 72
2019-11-10 04:00:00 16.6 15 Noroeste 36 Noroeste 0 -- -- 71
2019-11-10 03:00:00 16.4 15 Noroeste 33 Norte 0 -- -- 78
2019-11-10 02:00:00 16.6 18 Noroeste 32 Noroeste 0 -- -- 76
2019-11-10 01:00:00 16.5 14 Noroeste 34 Norte 0 -- -- 76
2019-11-10 00:00:00 16.2 15 Norte 32 Noroeste 0.2 -- -- 79
2019-11-09 23:00:00 15.9 12 Noroeste 35 Noroeste 0.8 -- -- 87
2019-11-09 22:00:00 16.5 17 Noroeste 35 Noroeste 0.2 -- -- 79
2019-11-09 21:00:00 17.1 17 Noroeste 33 Noroeste 0.2 -- -- 76
2019-11-09 20:00:00 17.1 16 Noroeste 38 Noroeste 0.2 -- -- 76
2019-11-09 19:00:00 16.8 17 Norte 38 Noroeste 0.2 -- -- 82
2019-11-09 18:00:00 17.4 19 Noroeste 45 Oeste 0 -- -- 67
2019-11-09 17:00:00 17.7 17 Noroeste 36 Noroeste 0 -- -- 68
2019-11-09 16:00:00 17.1 14 Norte 42 Nordeste 0.2 -- -- 77
2019-11-09 15:00:00 18.3 23 Norte 54 Norte 0 -- -- 65
2019-11-09 14:00:00 18.6 24 Norte 46 Noroeste 0 -- -- 65
2019-11-09 13:00:00 18.2 22 Nordeste 47 Norte 0 -- -- 72
2019-11-09 12:00:00 17.9 16 Noroeste 39 Noroeste 0 -- -- 76
2019-11-09 11:00:00 18.1 19 Noroeste 37 Noroeste 0 -- -- 76
2019-11-09 10:00:00 18.1 18 Norte 40 Noroeste 0 -- -- 74
2019-11-09 09:00:00 17.1 15 Noroeste 31 Norte 0 -- -- 80
2019-11-09 08:00:00 17.3 15 Oeste 33 Noroeste 0 -- -- 71
2019-11-09 07:00:00 17.3 15 Noroeste 31 Norte 0 -- -- 79
2019-11-09 06:00:00 17.3 10 Noroeste 30 Noroeste 0 -- -- 74
2019-11-09 05:00:00 17.3 13 Noroeste 33 Noroeste 0 -- -- 74
2019-11-09 04:00:00 17 11 Noroeste 30 Norte 0 -- -- 72
2019-11-09 03:00:00 17.1 15 Noroeste 31 Noroeste 0 -- -- 68
2019-11-09 02:00:00 17 13 Noroeste 31 Noroeste 0 -- -- 67
2019-11-09 01:00:00 17 14 Noroeste 29 Noroeste 0 -- -- 69
2019-11-09 00:00:00 17.1 15 Noroeste 30 Noroeste 0 -- -- 69
2019-11-08 23:00:00 17.2 19 Noroeste 32 Noroeste 0 -- -- 69
2019-11-08 22:00:00 17 12 Noroeste 30 Oeste 0 -- -- 73
2019-11-08 21:00:00 17.3 19 Oeste 31 Noroeste 0 -- -- 71
2019-11-08 20:00:00 17.4 15 Noroeste 31 Norte 0 -- -- 68
2019-11-08 19:00:00 17.2 16 Noroeste 32 Noroeste 0 -- -- 77
2019-11-08 18:00:00 17.5 17 Noroeste 35 Norte 0 -- -- 72
2019-11-08 17:00:00 17.8 13 Noroeste 40 Noroeste 0 -- -- 72
2019-11-08 16:00:00 18 14 Norte 43 Norte 0 -- -- 76
2019-11-08 15:00:00 18.2 24 Norte 42 Norte 0 -- -- 80
2019-11-08 14:00:00 19.3 21 Norte 43 Norte 0 -- -- 80
2019-11-08 13:00:00 18.5 13 Nordeste 34 Nordeste 0.2 -- -- 87
2019-11-08 12:00:00 19.4 13 Nordeste 33 Nordeste 0 -- -- 81
2019-11-08 11:00:00 19.1 14 Nordeste 30 Nordeste 0 -- -- 83
2019-11-08 10:00:00 18.5 10 Norte 22 Norte 0.4 -- -- 89
2019-11-08 09:00:00 17.9 9 Norte 17 Nordeste 0.2 -- -- 87
2019-11-08 08:00:00 17.3 8 Oeste 22 Norte 0 -- -- 89
2019-11-08 07:00:00 17.1 9 Norte 22 Noroeste 1 -- -- 89
2019-11-08 06:00:00 17.2 12 Noroeste 27 Noroeste 0.2 -- -- 86
2019-11-08 05:00:00 17.1 9 Noroeste 23 Oeste 0 -- -- 86
2019-11-08 04:00:00 17.1 10 Noroeste 22 Noroeste 0 -- -- 86
2019-11-08 03:00:00 17.3 13 Noroeste 28 Norte 0.2 -- -- 88
2019-11-08 02:00:00 17.5 10 Noroeste 29 Noroeste 0 -- -- 85
2019-11-08 01:00:00 17.6 9 Norte 21 Norte 0.8 -- -- 87
2019-11-08 00:00:00 17.9 10 Noroeste 27 Norte 0 -- -- 85
2019-11-07 23:00:00 17.8 14 Norte 28 Norte 0 -- -- 87
2019-11-07 22:00:00 17.8 12 Noroeste 28 Norte 0 -- -- 85
2019-11-07 21:00:00 17.9 18 Oeste 37 Noroeste 0 -- -- 81
2019-11-07 20:00:00 18 15 Noroeste 30 Noroeste 0 -- -- 76
2019-11-07 19:00:00 18 20 Norte 37 Norte 0 -- -- 79
2019-11-07 18:00:00 18.3 13 Noroeste 32 Norte 0 -- -- 81
2019-11-07 17:00:00 18.8 13 Norte 29 Norte 0 -- -- 79
2019-11-07 16:00:00 19.7 16 Nordeste 31 Noroeste 0.2 -- -- 77
2019-11-07 15:00:00 20 11 Norte 38 Nordeste 0 -- -- 72
2019-11-07 14:00:00 19.1 19 Norte 32 Norte 0 -- -- 76
2019-11-07 13:00:00 19.8 17 Norte 36 Nordeste 0 -- -- 73
2019-11-07 12:00:00 18.5 15 Norte 35 Oeste 0 -- -- 83
2019-11-07 11:00:00 18.5 11 Norte 25 Noroeste 0.6 -- -- 82
2019-11-07 10:00:00 17.6 14 Noroeste 27 Noroeste 0.6 -- -- 84
2019-11-07 09:00:00 17.2 12 Noroeste 27 Noroeste 0 -- -- 82
2019-11-07 08:00:00 16.5 12 Noroeste 29 Noroeste 0 -- -- 81
2019-11-07 07:00:00 16.8 14 Oeste 29 Oeste 0 -- -- 71
2019-11-07 06:00:00 16.8 14 Noroeste 32 Oeste 0 -- -- 76
2019-11-07 05:00:00 16.7 10 Noroeste 28 Noroeste 0 -- -- 81
2019-11-07 04:00:00 16.8 11 Noroeste 34 Noroeste 0 -- -- 82
2019-11-07 03:00:00 16.7 12 Noroeste 29 Noroeste 0 -- -- 81
2019-11-07 02:00:00 16.7 13 Noroeste 28 Noroeste 0 -- -- 80
2019-11-07 01:00:00 15.9 12 Noroeste 26 Norte 0.2 -- -- 84
2019-11-07 00:00:00 16.4 9 Noroeste 30 Noroeste 0.4 -- -- 85
2019-11-06 23:00:00 16.4 11 Noroeste 31 Oeste 0.4 -- -- 86
2019-11-06 22:00:00 16.8 15 Noroeste 32 Noroeste 0 -- -- 84
2019-11-06 21:00:00 16.7 15 Noroeste 30 Noroeste 0.4 -- -- 86
2019-11-06 20:00:00 17.4 14 Noroeste 34 Noroeste 0 -- -- 77
2019-11-06 19:00:00 17.7 19 Noroeste 38 Noroeste 0 -- -- 72
2019-11-06 18:00:00 17.7 13 Noroeste 34 Noroeste 0 -- -- 74
2019-11-06 17:00:00 17.9 16 Noroeste 39 Noroeste 0 -- -- 76
2019-11-06 16:00:00 18.8 17 Noroeste 39 Oeste 0 -- -- 70
2019-11-06 15:00:00 18.5 17 Noroeste 44 Norte 0 -- -- 72
2019-11-06 14:00:00 18.9 22 Noroeste 43 Noroeste 0.2 -- -- 68
2019-11-06 13:00:00 18.2 22 Norte 42 Norte 0 -- -- 74
2019-11-06 12:00:00 19.1 22 Noroeste 42 Noroeste 0.2 -- -- 64
2019-11-06 11:00:00 18.1 15 Noroeste 41 Noroeste 0 -- -- 74
2019-11-06 10:00:00 18.4 17 Noroeste 38 Noroeste 0 -- -- 68
2019-11-06 09:00:00 17.7 14 Noroeste 38 Noroeste 0 -- -- 71
2019-11-06 08:00:00 16.2 22 Noroeste 39 Noroeste 0.2 -- -- 81
2019-11-06 07:00:00 16.1 16 Oeste 28 Noroeste 0 -- -- 79
2019-11-06 06:00:00 16.5 13 Noroeste 30 Oeste 0 -- -- 72
2019-11-06 05:00:00 16.4 13 Noroeste 35 Noroeste 0.2 -- -- 83
2019-11-06 04:00:00 16.6 10 Noroeste 24 Noroeste 0 -- -- 82
2019-11-06 03:00:00 16.4 12 Noroeste 22 Oeste 0 -- -- 82
2019-11-06 02:00:00 16.3 11 Noroeste 29 Noroeste 0.2 -- -- 82
2019-11-06 01:00:00 16.2 16 Oeste 33 Noroeste 0.4 -- -- 85
2019-11-06 00:00:00 16.6 15 Noroeste 28 Noroeste 1 -- -- 86